Inukjuak Airport
CYPH : now visible

Airfield :











YOU CAN JOIN US ON...

 
LOGIN :

Register | Disclaimer

   EN    FR    IT 

 









Legend :    VFR   Marginal VFR   IFR   Intensive IFR   Very Intensive IFR
Visi :
Ceiling :
>= 8 km
>= 3000ft
5 to 8 km
1000 to 3000 ft
1500m to 5 km
500 to 1000 ft
800 to 1500m
200 to 500 ft
< 800m
< 200 ft
Symbols :   Thunderstorms  Fog  Heavy snow  Heavy precipitations  Wind > 20 kt






- Airport Elevation : 83 ft
- IATA code : YPH


CYPH - Inukjuak

CURRENT METAR :
  • 211920Z AUTO 24015KT 9SM -RA FEW019 SCT049 BKN070 00/M03 A3006 RMK SLP182

EXPIRED METARs :
  • 211913Z AUTO 24014KT 9SM SCT019 SCT049 BKN070 00/M03 A3006 RMK SLP182
  • 211859Z AUTO 23008G15KT 3SM -SN BKN021 BKN047 OVC070 M01/M02 A3006 RMK SLP184
  • 211846Z AUTO 24018KT 1 1/2SM -SN BKN017 BKN037 OVC045 M00/M03 A3007 RMK SLP186
  • 211838Z AUTO 24015G20KT 2SM -SN SCT019 BKN038 OVC045 M00/M04 A3007 RMK SLP185
  • 211811Z AUTO 26014G20KT 9SM -SN FEW017 SCT024 SCT044 00/M02 A3007 RMK SLP187
  • 211807Z AUTO 26014G20KT 9SM -SN -UP FEW019 SCT042 00/M02 A3007 RMK SLP187
  • 211744Z AUTO 24012G18KT 9SM -RA FEW047 01/M03 A3008 RMK SLP189
  • 211737Z AUTO 23014G19KT 9SM FEW047 00/M03 A3008 RMK SLP190
  • 211728Z AUTO 24016G21KT 9SM -SN FEW018 SCT047 BKN085 01/M02 A3008 RMK SLP191
  • 211719Z AUTO 23015KT 9SM -SN -UP FEW027 BKN085 01/M03 A3008 RMK SLP191
  • 211715Z AUTO 23016KT 9SM -RASN FEW027 BKN085 01/M03 A3008 RMK SLP191
  • 211700Z AUTO 22013G20KT 9SM FEW015 BKN085 00/M02 A3009 RMK SLP192
  • 211647Z AUTO 23016KT 9SM FEW017 SCT029 SCT049 BKN085 00/M03 A3009 RMK SLP193

TAF TAF CYPH
Valid from the 21 at 18:00 until the 22 at 06:00 UTC


211740Z 2118/2206 23010G20KT P6SM SCT030 BKN080
TEMPO 2118/2121 4SM -SHSN OVC020
PROB30 2118/2121 11/2SM -SHSN
FM212100 23008KT P6SM BKN030 BKN080
TEMPO 2121/2206 4SM -SHSN OVC020
PROB30 2121/2206 11/2SM -SHSN RMK FCST BASED ON AUTO OBS. NXT FCST BY 220000Z
CZUL FIR / North America



MET'MAP, your aeronautical weather chart ! - Copyright ORBIFLY December 2007 - Disclaimer

ORBIFLY MET'MAP TEAM :

Programming & Development : Alexandra Zaïnal
Concept & original design : Baudouin d'Aumeries
Assistance for programming : Marc-Olivier Méhu
Technical & hardware support : Manuel Goepfert

Contact : metmap@orbifly.com




SOURCES & CREDITS :

   NOAA       Earth
Advisory